Time;durP1;ratioP1;P1;durP2;ratioP2;P2;SDS_P1;SDS_P2;PMS_P1;PMS_P2;Temp;Humidity;BMP_temperature;BMP_pressure;BME280_temperature;BME280_humidity;BME280_pressure;Samples;Min_cycle;Max_cycle;Signal;HPM_P1;HPM_P2
2021/11/01 00:00:14;;;;;;;5.40;2.17;;;12.40;99.90;;;;;;5008821;28;20461;-46
2021/11/01 00:02:41;;;;;;;7.03;2.57;;;12.30;99.90;;;;;;5020010;28;20812;-46
2021/11/01 00:05:07;;;;;;;6.70;2.30;;;12.30;99.90;;;;;;5018615;28;20421;-45
2021/11/01 00:07:33;;;;;;;10.63;2.37;;;12.30;99.90;;;;;;5025343;28;20924;-46
2021/11/01 00:09:59;;;;;;;6.10;2.30;;;12.30;99.90;;;;;;5017366;28;20560;-47
2021/11/01 00:12:29;;;;;;;8.03;3.00;;;12.30;99.90;;;;;;5009207;28;20891;-45
2021/11/01 00:14:56;;;;;;;11.53;3.13;;;12.30;99.90;;;;;;5007759;28;20430;-45
2021/11/01 00:17:22;;;;;;;10.07;2.60;;;12.20;99.90;;;;;;5010938;28;20437;-45
2021/11/01 00:19:48;;;;;;;8.80;2.00;;;12.10;99.90;;;;;;5020137;28;20469;-47
2021/11/01 00:22:14;;;;;;;7.20;2.60;;;12.10;99.90;;;;;;5014451;28;20422;-47
2021/11/01 00:24:39;;;;;;;7.73;2.73;;;12.10;99.90;;;;;;5006966;28;20626;-47
2021/11/01 00:27:05;;;;;;;10.07;2.50;;;12.20;99.90;;;;;;5019707;28;20205;-48
2021/11/01 00:29:31;;;;;;;7.37;2.73;;;12.20;99.90;;;;;;5007928;28;20316;-47
2021/11/01 00:31:56;;;;;;;6.50;2.77;;;12.10;99.90;;;;;;5009484;28;20337;-47
2021/11/01 00:34:23;;;;;;;8.53;2.00;;;12.10;99.90;;;;;;5018413;28;20186;-52
2021/11/01 00:36:49;;;;;;;9.67;2.80;;;12.10;99.90;;;;;;5014898;28;20198;-48
2021/11/01 00:39:15;;;;;;;9.83;2.33;;;12.10;99.90;;;;;;5007347;28;20457;-48
2021/11/01 00:41:41;;;;;;;5.23;2.03;;;12.00;99.90;;;;;;5015615;28;20211;-46
2021/11/01 00:44:07;;;;;;;6.87;2.20;;;12.00;99.90;;;;;;5007063;28;20624;-46
2021/11/01 00:46:33;;;;;;;7.13;2.57;;;12.10;99.90;;;;;;5007962;28;20724;-48
2021/11/01 00:48:58;;;;;;;11.27;2.70;;;12.10;99.90;;;;;;5019647;28;20329;-46
2021/11/01 00:51:24;;;;;;;7.10;2.23;;;12.00;99.90;;;;;;5023495;28;20205;-46
2021/11/01 00:53:50;;;;;;;9.93;2.40;;;12.10;99.90;;;;;;5015412;28;20253;-46
2021/11/01 00:56:17;;;;;;;8.70;4.57;;;12.10;99.90;;;;;;5020886;28;20572;-45
2021/11/01 00:58:43;;;;;;;4.10;2.27;;;12.30;99.90;;;;;;5007685;28;20453;-46
2021/11/01 01:01:09;;;;;;;5.73;2.10;;;12.10;99.90;;;;;;5007200;28;20528;-45
2021/11/01 01:03:35;;;;;;;5.73;2.63;;;12.10;99.90;;;;;;5013205;28;20221;-47
2021/11/01 01:06:03;;;;;;;9.83;2.23;;;12.10;99.90;;;;;;5022318;28;20457;-46
2021/11/01 01:08:29;;;;;;;6.10;2.03;;;12.10;99.90;;;;;;5007657;28;20692;-47
2021/11/01 01:10:54;;;;;;;8.43;2.50;;;12.10;99.90;;;;;;5011383;28;20425;-46
2021/11/01 01:13:24;;;;;;;5.80;2.10;;;11.90;99.90;;;;;;5013734;28;20885;-46
2021/11/01 01:18:20;;;;;;;9.10;2.47;;;11.70;99.90;;;;;;5010647;28;20434;-48
2021/11/01 01:20:46;;;;;;;6.57;2.20;;;11.70;99.90;;;;;;5018453;28;20457;-47
2021/11/01 01:23:11;;;;;;;15.87;2.60;;;11.70;99.90;;;;;;5009512;28;20437;-45
2021/11/01 01:25:46;;;;;;;7.57;2.03;;;11.80;99.90;;;;;;5006853;28;20183;-45
2021/11/01 01:28:25;;;;;;;8.20;1.97;;;11.70;99.90;;;;;;5011624;28;20186;-45
2021/11/01 01:30:51;;;;;;;4.83;1.60;;;11.80;99.90;;;;;;5006837;28;20544;-47
2021/11/01 01:33:17;;;;;;;5.90;1.80;;;11.90;99.90;;;;;;5008837;28;21028;-45
2021/11/01 01:35:43;;;;;;;4.60;2.00;;;11.90;99.90;;;;;;5020753;28;20431;-48
2021/11/01 01:38:11;;;;;;;7.00;1.93;;;11.90;99.90;;;;;;5023151;28;20433;-45
2021/11/01 01:40:38;;;;;;;4.57;2.00;;;11.90;99.90;;;;;;5007230;28;20219;-46
2021/11/01 01:43:05;;;;;;;7.37;2.40;;;11.90;99.90;;;;;;5010205;28;20449;-47
2021/11/01 01:45:32;;;;;;;10.37;2.20;;;11.80;99.90;;;;;;5006603;28;20804;-47
2021/11/01 01:47:59;;;;;;;5.23;3.10;;;11.80;99.90;;;;;;5007712;28;20516;-46
2021/11/01 01:50:24;;;;;;;6.77;2.30;;;11.80;99.90;;;;;;5016529;28;20437;-46
2021/11/01 01:52:52;;;;;;;7.13;2.10;;;11.90;99.90;;;;;;5018835;28;20426;-48
2021/11/01 01:55:19;;;;;;;7.40;3.13;;;11.70;99.90;;;;;;5016343;28;20425;-45
2021/11/01 01:57:46;;;;;;;7.40;2.20;;;11.80;99.90;;;;;;5009115;28;20442;-47
2021/11/01 02:00:27;;;;;;;5.83;2.03;;;11.90;99.90;;;;;;5007021;28;20517;-46
2021/11/01 02:02:53;;;;;;;6.87;1.70;;;11.90;99.90;;;;;;5009770;28;20429;-47
2021/11/01 02:05:19;;;;;;;7.13;1.87;;;11.90;99.90;;;;;;5011063;28;20492;-49
2021/11/01 02:07:45;;;;;;;6.67;1.80;;;11.80;99.90;;;;;;5012948;28;20187;-46
2021/11/01 02:10:14;;;;;;;5.07;1.80;;;11.80;99.90;;;;;;5006536;28;20445;-46
2021/11/01 02:12:45;;;;;;;3.00;1.60;;;11.70;99.90;;;;;;5015009;28;20187;-45
2021/11/01 02:15:18;;;;;;;4.03;1.60;;;12.00;99.90;;;;;;5005830;28;20509;-46
2021/11/01 02:17:47;;;;;;;4.17;2.27;;;11.60;99.90;;;;;;5012804;28;20807;-46
2021/11/01 02:20:19;;;;;;;5.30;1.33;;;11.50;99.90;;;;;;5012733;28;21023;-50
2021/11/01 02:22:54;;;;;;;6.33;2.00;;;11.50;99.90;;;;;;5008840;28;20444;-46
2021/11/01 02:25:45;;;;;;;11.77;1.77;;;11.60;99.90;;;;;;5005583;28;20883;-47
2021/11/01 02:28:22;;;;;;;2.53;1.30;;;11.60;99.90;;;;;;5012382;28;20414;-46
2021/11/01 02:30:50;;;;;;;7.13;2.10;;;11.80;99.90;;;;;;5006069;28;20508;-46
2021/11/01 02:33:18;;;;;;;10.07;2.73;;;11.70;99.90;;;;;;5011061;28;20779;-45
2021/11/01 02:35:45;;;;;;;4.10;1.70;;;11.70;99.90;;;;;;5014238;28;20414;-46
2021/11/01 02:38:16;;;;;;;5.77;1.73;;;11.70;99.90;;;;;;5020365;28;20578;-45
2021/11/01 02:40:44;;;;;;;4.63;1.60;;;11.60;99.90;;;;;;5006159;28;20462;-46
2021/11/01 02:43:11;;;;;;;5.07;1.90;;;11.40;99.90;;;;;;5006874;28;20488;-45
2021/11/01 02:45:36;;;;;;;5.87;1.93;;;11.60;99.90;;;;;;5006313;28;20437;-46
2021/11/01 02:48:02;;;;;;;6.13;1.60;;;11.60;99.90;;;;;;5006648;28;20434;-46
2021/11/01 02:50:28;;;;;;;4.40;1.40;;;11.60;99.90;;;;;;5018941;28;20269;-46
2021/11/01 02:52:54;;;;;;;6.07;2.50;;;11.60;99.90;;;;;;5017385;28;20244;-45
2021/11/01 02:55:20;;;;;;;6.90;1.80;;;11.90;99.90;;;;;;5020093;28;20191;-47
2021/11/01 02:57:48;;;;;;;5.07;1.53;;;11.60;99.90;;;;;;5026151;28;20217;-47
2021/11/01 03:00:17;;;;;;;6.53;2.33;;;11.60;99.90;;;;;;5009524;28;20457;-49
2021/11/01 03:02:43;;;;;;;4.13;1.47;;;11.60;99.90;;;;;;5008814;28;20842;-46
2021/11/01 03:05:17;;;;;;;3.20;1.30;;;11.50;99.90;;;;;;5021993;28;20415;-46
2021/11/01 03:07:43;;;;;;;6.63;1.40;;;11.60;99.90;;;;;;5019191;28;20422;-47
2021/11/01 03:10:11;;;;;;;6.23;1.83;;;11.40;99.90;;;;;;5009428;28;21005;-47
2021/11/01 03:12:39;;;;;;;7.17;2.40;;;11.70;99.90;;;;;;5014219;28;20920;-46
2021/11/01 03:15:08;;;;;;;3.03;1.40;;;11.60;99.90;;;;;;5009004;28;20418;-46
2021/11/01 03:18:09;;;;;;;5.43;1.43;;;11.60;99.90;;;;;;5009172;28;20414;-47
2021/11/01 03:20:43;;;;;;;8.40;1.40;;;11.40;99.90;;;;;;5020788;28;20468;-47
2021/11/01 03:23:20;;;;;;;4.90;1.93;;;11.50;99.90;;;;;;5025588;28;20420;-49
2021/11/01 03:26:09;;;;;;;5.20;1.80;;;11.70;99.90;;;;;;5009665;28;20424;-46
2021/11/01 03:28:36;;;;;;;5.93;1.60;;;11.50;99.90;;;;;;5011539;28;20552;-46
2021/11/01 03:31:05;;;;;;;4.90;2.43;;;11.40;99.90;;;;;;5009264;28;20441;-45
2021/11/01 03:33:37;;;;;;;3.23;1.40;;;11.40;99.90;;;;;;5010253;28;20876;-47
2021/11/01 03:36:05;;;;;;;2.20;1.10;;;11.60;99.90;;;;;;5020528;28;20429;-52
2021/11/01 03:38:31;;;;;;;9.43;2.00;;;11.50;99.90;;;;;;5015831;28;20778;-45
2021/11/01 03:40:58;;;;;;;4.23;1.30;;;11.50;99.90;;;;;;5009088;28;20466;-45
2021/11/01 03:43:35;;;;;;;3.43;1.63;;;11.50;99.90;;;;;;5019325;28;20422;-45
2021/11/01 03:46:03;;;;;;;4.43;1.80;;;11.50;99.90;;;;;;5008938;28;20418;-45
2021/11/01 03:48:36;;;;;;;5.73;2.03;;;11.30;99.90;;;;;;5010103;28;20433;-46
2021/11/01 03:51:09;;;;;;;8.13;2.03;;;11.60;99.90;;;;;;5016207;28;20476;-46
2021/11/01 03:53:36;;;;;;;8.60;1.50;;;11.50;99.90;;;;;;5016307;28;20437;-46
2021/11/01 03:56:03;;;;;;;8.20;2.00;;;11.60;99.90;;;;;;5024784;28;20433;-45
2021/11/01 03:58:28;;;;;;;8.00;1.70;;;11.50;99.90;;;;;;5018395;28;20442;-45
2021/11/01 04:00:55;;;;;;;5.80;1.93;;;11.50;99.90;;;;;;5007591;28;21022;-49
2021/11/01 04:03:27;;;;;;;3.73;1.83;;;11.40;99.90;;;;;;5007845;28;20433;-47
2021/11/01 04:06:03;;;;;;;4.23;1.80;;;11.60;99.90;;;;;;5021934;28;20414;-48
2021/11/01 04:08:30;;;;;;;5.43;1.67;;;11.40;99.90;;;;;;5025250;28;20423;-45
2021/11/01 04:10:55;;;;;;;7.53;1.80;;;11.40;99.90;;;;;;5009802;28;20454;-47
2021/11/01 04:13:23;;;;;;;2.03;1.57;;;11.30;99.90;;;;;;5008802;28;20779;-46
2021/11/01 04:15:55;;;;;;;5.60;1.93;;;11.30;99.90;;;;;;5008206;28;20479;-45
2021/11/01 04:18:27;;;;;;;6.40;1.90;;;11.30;99.90;;;;;;5008127;28;20425;-47
2021/11/01 04:20:53;;;;;;;3.77;1.53;;;11.30;99.90;;;;;;5015404;28;20516;-46
2021/11/01 04:23:24;;;;;;;6.93;2.10;;;11.40;99.90;;;;;;5012835;28;20430;-45
2021/11/01 04:25:50;;;;;;;5.60;1.60;;;11.50;99.90;;;;;;5008135;28;20426;-45
2021/11/01 04:28:15;;;;;;;5.83;1.63;;;11.30;99.90;;;;;;5019457;28;20417;-45
2021/11/01 04:30:44;;;;;;;4.10;1.67;;;11.40;99.90;;;;;;5007629;28;20752;-47
2021/11/01 04:33:13;;;;;;;2.30;1.73;;;11.10;99.90;;;;;;5007647;28;20278;-46
2021/11/01 04:35:40;;;;;;;6.93;2.30;;;11.20;99.90;;;;;;5010059;28;21091;-47
2021/11/01 04:38:25;;;;;;;5.73;2.00;;;11.10;99.90;;;;;;5009347;28;20845;-45
2021/11/01 04:40:59;;;;;;;4.70;1.70;;;11.30;99.90;;;;;;5007648;28;20472;-46
2021/11/01 04:54:10;;;;;;;5.00;1.50;;;11.30;99.90;;;;;;5026049;28;20428;-45
2021/11/01 04:56:36;;;;;;;3.60;1.63;;;11.40;99.90;;;;;;5025707;28;20804;-45
2021/11/01 04:59:03;;;;;;;3.60;1.60;;;11.30;99.90;;;;;;5013460;28;20865;-47
2021/11/01 05:01:37;;;;;;;7.80;1.53;;;11.30;99.90;;;;;;5007068;28;20537;-46
2021/11/01 05:04:06;;;;;;;3.97;1.80;;;11.30;99.90;;;;;;5009932;28;20528;-46
2021/11/01 05:06:33;;;;;;;2.73;1.37;;;11.30;99.90;;;;;;5018774;28;20775;-46
2021/11/01 05:09:06;;;;;;;6.37;1.97;;;11.20;99.90;;;;;;5016182;28;20530;-45
2021/11/01 05:11:37;;;;;;;9.57;1.90;;;11.20;99.90;;;;;;5006855;28;20963;-45
2021/11/01 05:14:03;;;;;;;5.03;2.43;;;11.20;99.90;;;;;;5017426;28;20517;-45
2021/11/01 05:16:57;;;;;;;5.83;2.33;;;11.20;99.90;;;;;;5006838;28;20433;-45
2021/11/01 05:21:53;;;;;;;2.43;1.50;;;11.30;99.90;;;;;;5017890;28;20504;-45
2021/11/01 05:24:56;;;;;;;2.37;1.53;;;11.30;99.90;;;;;;5011606;28;20207;-46
2021/11/01 05:29:52;;;;;;;5.33;1.60;;;11.40;99.90;;;;;;5014423;28;20426;-47
2021/11/01 05:32:22;;;;;;;5.47;1.77;;;11.30;99.90;;;;;;5007848;28;20436;-47
2021/11/01 05:34:48;;;;;;;4.23;1.50;;;11.40;99.90;;;;;;5019051;28;20917;-49
2021/11/01 05:37:14;;;;;;;6.30;1.90;;;11.30;99.90;;;;;;5016776;28;20434;-47
2021/11/01 05:39:40;;;;;;;3.90;1.50;;;11.20;99.90;;;;;;5018827;28;20247;-46
2021/11/01 05:42:07;;;;;;;5.40;1.77;;;11.30;99.90;;;;;;5016485;28;20183;-46
2021/11/01 05:44:33;;;;;;;5.93;2.37;;;11.40;99.90;;;;;;5016199;28;20433;-47
2021/11/01 05:46:59;;;;;;;6.10;2.10;;;11.40;99.90;;;;;;5024940;28;21003;-45
2021/11/01 05:49:25;;;;;;;1.97;1.17;;;11.30;99.90;;;;;;5014710;28;20210;-47
2021/11/01 05:51:53;;;;;;;3.37;1.40;;;11.20;99.90;;;;;;5025552;28;20459;-46
2021/11/01 05:54:22;;;;;;;5.87;1.70;;;11.20;99.90;;;;;;5021033;28;20274;-47
2021/11/01 06:09:51;;;;;;;3.10;1.43;;;11.00;99.90;;;;;;5006207;28;20954;-45
2021/11/01 06:15:02;;;;;;;4.03;1.50;;;11.20;99.90;;;;;;5017463;28;20457;-46
2021/11/01 06:17:28;;;;;;;4.03;1.60;;;11.20;99.90;;;;;;5026184;28;20429;-45
2021/11/01 06:19:54;;;;;;;5.63;1.23;;;11.30;99.90;;;;;;5019860;28;20838;-47
2021/11/01 06:22:20;;;;;;;7.20;1.93;;;11.10;99.90;;;;;;5015575;28;20422;-48
2021/11/01 06:27:16;;;;;;;5.43;1.73;;;11.10;99.90;;;;;;5006555;28;20194;-46
2021/11/01 06:30:27;;;;;;;2.80;1.30;;;11.30;99.90;;;;;;5010015;28;20458;-44
2021/11/01 06:32:36;;;;;;;2.60;1.50;;;11.20;99.90;;;;;;5012117;28;20681;-45
2021/11/01 06:46:21;;;;;;;2.30;1.33;;;11.20;99.90;;;;;;5007136;28;20274;-46
2021/11/01 06:56:36;;;;;;;4.90;1.50;;;11.40;99.90;;;;;;5023831;28;20425;-45
2021/11/01 07:15:29;;;;;;;8.17;2.17;;;11.10;99.90;;;;;;5016236;28;20425;-46
2021/11/01 07:18:09;;;;;;;10.20;1.40;;;11.30;99.90;;;;;;5016082;28;20418;-44
2021/11/01 08:28:24;;;;;;;3.20;1.37;;;14.90;99.90;;;;;;5025717;28;20416;-46
2021/11/01 09:06:08;;;;;;;4.70;1.40;;;14.30;99.90;;;;;;5010634;28;20517;-48
2021/11/01 09:26:51;;;;;;;4.17;1.70;;;14.50;99.90;;;;;;5009542;28;20423;-46
2021/11/01 09:42:43;;;;;;;10.43;1.60;;;15.90;99.90;;;;;;5018757;28;20777;-46
2021/11/01 09:45:09;;;;;;;4.13;1.33;;;16.10;99.90;;;;;;5019311;28;20422;-47
2021/11/01 09:47:36;;;;;;;3.50;1.37;;;16.30;99.90;;;;;;5029639;28;20769;-46
2021/11/01 09:50:03;;;;;;;4.33;1.80;;;16.30;99.90;;;;;;5006415;28;20442;-46
2021/11/01 09:52:29;;;;;;;2.17;1.03;;;16.30;99.90;;;;;;5011483;28;20488;-46
2021/11/01 09:54:57;;;;;;;3.90;1.70;;;16.00;99.90;;;;;;5021605;28;20460;-45
2021/11/01 09:57:35;;;;;;;4.17;1.57;;;15.80;99.90;;;;;;5006104;28;20294;-46
2021/11/01 10:00:02;;;;;;;4.13;1.50;;;15.70;99.90;;;;;;5012431;28;20559;-48
2021/11/01 10:02:28;;;;;;;6.30;1.37;;;15.50;99.90;;;;;;5010367;28;20997;-46
2021/11/01 10:04:54;;;;;;;5.60;1.63;;;15.30;99.90;;;;;;5005560;28;20429;-48
2021/11/01 10:07:30;;;;;;;4.47;1.60;;;15.20;99.90;;;;;;5009500;28;20519;-45
2021/11/01 10:10:04;;;;;;;2.60;1.10;;;15.30;99.90;;;;;;5018338;28;20975;-47
2021/11/01 10:12:34;;;;;;;4.67;1.60;;;15.30;99.90;;;;;;5004741;28;20449;-47
2021/11/01 10:18:17;;;;;;;3.87;1.27;;;14.90;99.90;;;;;;5004867;28;20450;-45
2021/11/01 10:20:47;;;;;;;4.00;1.73;;;14.60;99.90;;;;;;5008540;28;20480;-46
2021/11/01 10:23:26;;;;;;;5.50;1.80;;;14.40;99.90;;;;;;5042073;28;20903;-47
2021/11/01 10:26:04;;;;;;;4.23;1.50;;;14.20;99.90;;;;;;5028353;28;20433;-47
2021/11/01 10:28:30;;;;;;;3.10;1.17;;;14.20;99.90;;;;;;5007633;28;20442;-47
2021/11/01 10:31:14;;;;;;;4.53;1.53;;;14.10;99.90;;;;;;5007022;28;20456;-46
2021/11/01 10:33:45;;;;;;;4.50;1.60;;;14.20;99.90;;;;;;5005658;28;20817;-45
2021/11/01 10:36:37;;;;;;;3.57;1.20;;;14.30;99.90;;;;;;5006774;28;20467;-46
2021/11/01 10:39:16;;;;;;;2.93;1.33;;;14.10;99.90;;;;;;5024200;28;20862;-48
2021/11/01 10:42:28;;;;;;;3.37;1.90;;;14.10;99.90;;;;;;5012865;28;20465;-46
2021/11/01 11:14:31;;;;;;;3.07;1.53;;;14.40;99.90;;;;;;5008647;28;20520;-51
2021/11/01 11:20:52;;;;;;;3.03;1.20;;;14.30;99.90;;;;;;5008141;28;20909;-47
2021/11/01 11:22:57;;;;;;;2.30;0.87;;;14.50;99.90;;;;;;5011125;28;20457;-49
2021/11/01 11:31:22;;;;;;;2.43;1.13;;;14.90;99.90;;;;;;5017971;28;20452;-48
2021/11/01 11:39:27;;;;;;;3.20;1.30;;;15.30;99.90;;;;;;5018106;28;20525;-46
2021/11/01 11:48:14;;;;;;;1.27;1.00;;;16.10;99.70;;;;;;5023315;28;20429;-49
2021/11/01 11:50:41;;;;;;;2.60;1.10;;;15.90;98.40;;;;;;5028663;28;20535;-46
2021/11/01 11:53:27;;;;;;;2.13;1.03;;;15.90;99.30;;;;;;5029557;28;20563;-47
2021/11/01 11:56:07;;;;;;;9.33;1.10;;;16.10;99.60;;;;;;5038470;28;20798;-47
2021/11/01 11:58:41;;;;;;;5.53;1.47;;;16.20;99.00;;;;;;5033764;28;20534;-46
2021/11/01 12:01:33;;;;;;;2.67;0.73;;;16.00;98.00;;;;;;5027000;28;20867;-49
2021/11/01 12:04:04;;;;;;;1.93;0.80;;;15.80;97.30;;;;;;5040496;28;20416;-49
2021/11/01 12:06:55;;;;;;;5.43;1.23;;;15.80;97.70;;;;;;5016390;28;20775;-47
2021/11/01 12:17:24;;;;;;;5.70;1.07;;;15.50;98.00;;;;;;5018971;28;20437;-47
2021/11/01 12:19:50;;;;;;;1.60;0.70;;;15.40;98.60;;;;;;5006942;28;20433;-46
2021/11/01 12:22:30;;;;;;;2.33;0.70;;;15.50;99.20;;;;;;5017543;28;20866;-46
2021/11/01 12:24:58;;;;;;;2.93;1.03;;;15.70;99.20;;;;;;5031808;28;20897;-46
2021/11/01 12:27:24;;;;;;;2.30;1.00;;;16.00;98.20;;;;;;5010302;28;20472;-50
2021/11/01 12:29:50;;;;;;;0.93;0.60;;;15.90;97.30;;;;;;5007735;28;20661;-46
2021/11/01 12:32:16;;;;;;;3.20;1.07;;;16.00;97.80;;;;;;5014687;28;20442;-45
2021/11/01 12:35:33;;;;;;;1.37;0.87;;;16.00;97.20;;;;;;5007493;28;20438;-45
2021/11/01 12:37:49;;;;;;;1.90;0.83;;;15.90;96.80;;;;;;5010583;28;20445;-46
2021/11/01 12:40:24;;;;;;;4.63;0.77;;;16.00;97.60;;;;;;5015339;28;20515;-48
2021/11/01 12:57:28;;;;;;;2.60;0.70;;;16.50;96.30;;;;;;5020991;28;20421;-45
2021/11/01 12:59:54;;;;;;;3.60;1.07;;;16.40;96.30;;;;;;5027324;28;20427;-46
2021/11/01 13:02:32;;;;;;;2.50;0.83;;;16.20;97.40;;;;;;5045170;28;20467;-47
2021/11/01 13:05:05;;;;;;;3.43;0.90;;;16.30;96.70;;;;;;5004414;28;20438;-47
2021/11/01 13:18:36;;;;;;;2.80;0.80;;;16.60;95.70;;;;;;5003262;28;20437;-48
2021/11/01 13:21:08;;;;;;;2.10;0.73;;;16.90;95.70;;;;;;5005503;28;20513;-48
2021/11/01 13:23:36;;;;;;;2.50;0.83;;;16.90;94.90;;;;;;5013559;28;20444;-47
2021/11/01 13:26:22;;;;;;;1.57;0.83;;;16.40;95.20;;;;;;5022949;28;21004;-46
2021/11/01 13:29:04;;;;;;;5.80;0.80;;;16.40;96.10;;;;;;5006361;28;20426;-46
2021/11/01 13:36:49;;;;;;;1.93;0.70;;;15.70;96.90;;;;;;5013348;28;20430;-49
2021/11/01 13:39:44;;;;;;;1.23;0.70;;;15.50;97.30;;;;;;5008116;28;20430;-48
2021/11/01 13:42:17;;;;;;;1.70;0.80;;;15.40;97.40;;;;;;5016857;28;20493;-46
2021/11/01 13:44:44;;;;;;;1.43;0.80;;;15.30;98.10;;;;;;5005023;28;20430;-46
2021/11/01 13:47:15;;;;;;;2.60;1.10;;;15.30;97.90;;;;;;5006556;28;20442;-48
2021/11/01 13:49:44;;;;;;;1.60;0.70;;;15.40;97.40;;;;;;5004625;28;20439;-51
2021/11/01 13:55:08;;;;;;;2.23;0.93;;;15.10;96.70;;;;;;5011751;28;20537;-45
2021/11/01 13:57:45;;;;;;;4.30;1.30;;;14.90;97.50;;;;;;5012919;28;20612;-47
2021/11/01 14:00:33;;;;;;;5.80;0.90;;;15.00;98.00;;;;;;5005756;28;21019;-48
2021/11/01 14:16:23;;;;;;;1.70;0.67;;;14.80;98.60;;;;;;5006810;28;20933;-48
2021/11/01 15:23:30;;;;;;;3.73;1.40;;;13.90;99.90;;;;;;5013921;28;20432;-46
2021/11/01 15:32:25;;;;;;;4.17;1.23;;;13.60;99.90;;;;;;5009104;28;20429;-48
2021/11/01 16:18:05;;;;;;;3.33;0.90;;;12.90;99.90;;;;;;5007496;28;20429;-45
2021/11/01 16:20:27;;;;;;;2.90;0.87;;;12.70;99.90;;;;;;5006997;28;20516;-47
2021/11/01 16:23:10;;;;;;;4.10;1.00;;;12.50;99.90;;;;;;5006820;28;20811;-48
2021/11/01 16:25:38;;;;;;;2.77;0.77;;;12.30;99.90;;;;;;5017865;28;20441;-46
2021/11/01 16:28:04;;;;;;;4.00;1.50;;;12.10;99.90;;;;;;5015366;28;20444;-49
2021/11/01 16:30:32;;;;;;;3.40;1.03;;;11.90;99.90;;;;;;5009171;28;20445;-48
2021/11/01 16:33:06;;;;;;;1.60;0.90;;;11.80;99.90;;;;;;5013866;28;20206;-46
2021/11/01 16:35:41;;;;;;;1.90;1.13;;;11.70;99.90;;;;;;5006446;28;20861;-45
2021/11/01 16:38:13;;;;;;;3.17;1.43;;;11.70;99.90;;;;;;5005992;28;20433;-47
2021/11/01 16:40:41;;;;;;;4.87;1.93;;;11.70;99.90;;;;;;5017287;28;20866;-45
2021/11/01 16:43:14;;;;;;;3.67;1.90;;;11.70;99.90;;;;;;5017849;28;20493;-45
2021/11/01 16:45:41;;;;;;;4.10;2.47;;;11.70;99.90;;;;;;5014758;28;20579;-48
2021/11/01 16:48:07;;;;;;;2.60;1.90;;;11.70;99.90;;;;;;5007535;28;20960;-47
2021/11/01 16:50:34;;;;;;;3.90;2.10;;;11.70;99.90;;;;;;5006953;28;20797;-45
2021/11/01 16:53:01;;;;;;;3.17;1.93;;;11.70;99.90;;;;;;5006590;28;20480;-47
2021/11/01 16:55:30;;;;;;;3.27;1.67;;;11.60;99.90;;;;;;5010200;28;20457;-48
2021/11/01 16:58:03;;;;;;;2.93;1.80;;;11.60;99.90;;;;;;5018849;28;20781;-45
2021/11/01 17:03:45;;;;;;;2.40;1.97;;;11.60;99.90;;;;;;5013379;28;20894;-47
2021/11/01 17:06:29;;;;;;;2.73;1.83;;;11.50;99.90;;;;;;5010059;28;20472;-50
2021/11/01 18:42:58;;;;;;;3.27;1.83;;;10.80;99.90;;;;;;5020427;28;20473;-47
2021/11/01 18:45:00;;;;;;;9.57;2.00;;;10.80;99.90;;;;;;5018350;28;20461;-46
2021/11/01 18:53:07;;;;;;;4.53;1.70;;;10.80;99.90;;;;;;5003011;28;20438;-45
2021/11/01 18:55:34;;;;;;;2.67;1.43;;;10.90;99.90;;;;;;5013839;28;21022;-46
2021/11/01 18:58:01;;;;;;;4.00;1.83;;;11.00;99.90;;;;;;5013458;28;20525;-48
2021/11/01 19:00:28;;;;;;;3.20;2.10;;;11.10;99.90;;;;;;5021578;28;20465;-47
2021/11/01 19:02:57;;;;;;;3.60;2.00;;;11.00;99.90;;;;;;5005024;28;20434;-48
2021/11/01 19:08:39;;;;;;;6.17;1.93;;;11.10;99.90;;;;;;4984999;28;21017;-47
2021/11/01 20:03:59;;;;;;;3.80;1.20;;;11.30;99.90;;;;;;5007606;28;20426;-45
2021/11/01 20:09:24;;;;;;;2.43;1.40;;;11.20;99.90;;;;;;5013900;28;20879;-47
2021/11/01 20:14:43;;;;;;;4.27;1.80;;;11.10;99.90;;;;;;5011938;28;20437;-46
2021/11/01 21:26:28;;;;;;;3.13;1.30;;;11.10;99.90;;;;;;5010353;28;20824;-45
2021/11/01 21:28:54;;;;;;;3.00;1.40;;;11.20;99.90;;;;;;5019956;28;20417;-45
2021/11/01 21:31:21;;;;;;;3.00;1.73;;;11.20;99.90;;;;;;5023438;28;20636;-47
2021/11/01 21:33:51;;;;;;;2.70;1.53;;;11.10;99.90;;;;;;5005960;28;20658;-46
2021/11/01 21:36:24;;;;;;;4.90;1.53;;;11.30;99.90;;;;;;5007072;28;20429;-48
2021/11/01 21:38:55;;;;;;;1.60;1.40;;;11.10;99.90;;;;;;5006496;28;20504;-46
2021/11/01 21:41:22;;;;;;;1.83;1.20;;;11.10;99.90;;;;;;5007420;28;20461;-46
2021/11/01 21:43:48;;;;;;;3.20;1.27;;;11.20;99.90;;;;;;5030843;28;20864;-47
2021/11/01 21:46:14;;;;;;;3.47;1.50;;;11.20;99.90;;;;;;5016884;28;20916;-47
2021/11/01 21:48:40;;;;;;;5.37;1.60;;;11.20;99.90;;;;;;5009287;28;20548;-46
2021/11/01 21:51:06;;;;;;;3.50;1.60;;;11.20;99.90;;;;;;5041963;28;20420;-51
2021/11/01 21:53:33;;;;;;;3.07;1.50;;;11.10;99.90;;;;;;5005302;28;20187;-45
2021/11/01 21:55:58;;;;;;;2.50;1.50;;;11.00;99.90;;;;;;5021021;28;20194;-48
2021/11/01 21:58:38;;;;;;;3.53;1.50;;;11.20;99.90;;;;;;5012313;28;20446;-46
2021/11/01 22:19:57;;;;;;;3.80;1.80;;;11.00;99.90;;;;;;5007684;28;20434;-47
2021/11/01 22:25:31;;;;;;;4.80;1.50;;;10.90;99.90;;;;;;5002691;28;20487;-49
2021/11/01 22:39:20;;;;;;;3.20;2.00;;;10.60;99.90;;;;;;5011770;28;20951;-46
2021/11/01 22:44:40;;;;;;;3.17;1.53;;;10.20;99.90;;;;;;5012339;28;21000;-47
2021/11/01 22:58:00;;;;;;;2.93;1.50;;;10.10;99.90;;;;;;5021285;28;20480;-45
2021/11/01 23:00:35;;;;;;;2.40;1.70;;;10.20;99.90;;;;;;5021009;28;20770;-46
2021/11/01 23:03:07;;;;;;;3.00;1.80;;;10.40;99.90;;;;;;5005047;28;20867;-47
2021/11/01 23:32:42;;;;;;;5.13;2.30;;;9.90;99.90;;;;;;5008384;28;20421;-46
2021/11/01 23:35:08;;;;;;;3.90;1.70;;;9.90;99.90;;;;;;5008888;28;20456;-47
2021/11/01 23:37:34;;;;;;;3.90;1.57;;;9.90;99.90;;;;;;5017166;28;20186;-46
2021/11/01 23:39:59;;;;;;;2.83;1.77;;;9.70;99.90;;;;;;5009065;28;20199;-45
2021/11/01 23:42:25;;;;;;;5.23;1.97;;;9.90;99.90;;;;;;5012336;28;20616;-45
2021/11/01 23:44:54;;;;;;;3.10;1.80;;;9.80;99.90;;;;;;5017351;28;20584;-45
2021/11/01 23:47:21;;;;;;;5.77;2.10;;;9.90;99.90;;;;;;5022257;28;20219;-45
2021/11/01 23:49:48;;;;;;;2.53;1.90;;;9.90;99.90;;;;;;5011856;28;20533;-45
2021/11/01 23:52:15;;;;;;;3.63;2.17;;;9.80;99.90;;;;;;5013350;28;20444;-45
2021/11/01 23:54:44;;;;;;;5.70;2.40;;;10.00;99.90;;;;;;5013146;28;20432;-49
2021/11/01 23:57:14;;;;;;;3.20;2.03;;;9.70;99.90;;;;;;5027428;28;20424;-48
2021/11/01 23:59:43;;;;;;;4.30;1.70;;;9.60;99.90;;;;;;5024126;28;20619;-47
